createdAt,value
2018-09-25T00:02:29.002Z,74.15
2018-09-25T00:05:02.854Z,73.91
2018-09-25T00:07:36.673Z,73.44
2018-09-25T00:10:10.617Z,73.53
2018-09-25T00:12:44.358Z,73.63
2018-09-25T00:15:18.115Z,73.20
2018-09-25T00:17:51.887Z,73.28
2018-09-25T00:20:25.687Z,73.12
2018-09-25T00:22:59.589Z,72.69
2018-09-25T00:25:33.580Z,72.71
2018-09-25T00:28:07.433Z,72.64
2018-09-25T00:30:41.369Z,73.10
2018-09-25T00:33:15.214Z,72.71
2018-09-25T00:35:49.094Z,72.73
2018-09-25T00:38:22.940Z,72.72
2018-09-25T00:40:56.833Z,71.95
2018-09-25T00:43:30.773Z,72.27
2018-09-25T00:46:04.588Z,72.30
2018-09-25T00:48:38.532Z,71.79
2018-09-25T00:51:12.524Z,71.27
2018-09-25T00:53:46.351Z,71.24
2018-09-25T00:56:20.094Z,71.30
2018-09-25T00:58:53.977Z,70.85
2018-09-25T01:01:27.761Z,70.99
2018-09-25T01:04:01.609Z,71.14
2018-09-25T01:06:35.489Z,71.20
2018-09-25T01:09:09.408Z,71.24
2018-09-25T01:11:43.292Z,71.45
2018-09-25T01:14:17.083Z,71.18
2018-09-25T01:16:50.719Z,71.42
2018-09-25T01:19:24.545Z,71.28
2018-09-25T01:21:58.407Z,71.79
2018-09-25T01:24:32.278Z,71.85
2018-09-25T01:27:06.140Z,71.63
2018-09-25T01:29:40.063Z,71.68
2018-09-25T01:32:13.936Z,71.81
2018-09-25T01:34:47.838Z,72.11
2018-09-25T01:37:21.751Z,72.06
2018-09-25T01:39:55.647Z,72.48
2018-09-25T01:42:29.566Z,72.83
2018-09-25T01:45:03.428Z,72.91
2018-09-25T01:47:37.298Z,73.21
2018-09-25T01:50:11.388Z,73.85
2018-09-25T01:52:45.279Z,73.84
2018-09-25T01:55:19.296Z,74.09
2018-09-25T01:57:53.103Z,74.01
2018-09-25T02:00:27.086Z,73.98
2018-09-25T02:03:00.936Z,74.06
2018-09-25T02:05:34.928Z,73.78
2018-09-25T02:08:08.670Z,74.32
2018-09-25T02:10:42.633Z,74.75
2018-09-25T02:13:16.579Z,74.56
2018-09-25T02:15:50.441Z,74.83
2018-09-25T02:18:24.353Z,74.72
2018-09-25T02:20:58.041Z,74.57
2018-09-25T02:23:31.879Z,74.95
2018-09-25T02:26:05.752Z,75.13
2018-09-25T02:28:39.730Z,75.18
2018-09-25T02:31:13.628Z,74.81
2018-09-25T02:33:47.536Z,74.85
2018-09-25T02:36:21.501Z,74.58
2018-09-25T02:38:55.320Z,74.52
2018-09-25T02:41:29.148Z,74.60
2018-09-25T02:44:03.036Z,73.86
2018-09-25T02:46:36.945Z,73.76
2018-09-25T02:49:10.864Z,73.70
2018-09-25T02:51:44.784Z,73.87
2018-09-25T02:54:18.788Z,73.82
2018-09-25T02:56:52.763Z,73.92
2018-09-25T02:59:26.752Z,73.63
2018-09-25T03:02:00.644Z,73.85
2018-09-25T03:04:34.464Z,73.90
2018-09-25T03:07:08.609Z,73.66
2018-09-25T03:09:42.518Z,74.15
2018-09-25T03:12:16.450Z,74.30
2018-09-25T03:14:50.368Z,73.81
2018-09-25T03:17:24.288Z,74.36
2018-09-25T03:19:58.248Z,74.52
2018-09-25T03:22:32.013Z,74.62
2018-09-25T03:25:05.959Z,75.20
2018-09-25T03:27:39.656Z,75.49
2018-09-25T03:30:13.588Z,75.72
2018-09-25T03:32:47.394Z,75.55
2018-09-25T03:35:21.306Z,75.28
2018-09-25T03:37:55.329Z,75.13
2018-09-25T03:40:29.240Z,74.48
2018-09-25T03:43:03.112Z,74.17
2018-09-25T03:45:37.025Z,74.46
2018-09-25T03:48:10.878Z,73.97
2018-09-25T03:50:44.779Z,73.97
2018-09-25T03:53:18.742Z,73.96
2018-09-25T03:55:52.637Z,73.26
2018-09-25T03:58:26.473Z,73.02
2018-09-25T04:01:00.305Z,73.07
2018-09-25T04:03:34.155Z,72.95
2018-09-25T04:06:08.144Z,73.38
2018-09-25T04:08:42.188Z,72.32
2018-09-25T04:11:16.107Z,72.54
2018-09-25T04:13:50.065Z,72.65
2018-09-25T04:16:24.031Z,72.76
2018-09-25T04:18:58.006Z,73.03
2018-09-25T04:21:31.958Z,71.86
2018-09-25T04:24:05.851Z,71.96
2018-09-25T04:26:39.677Z,71.27
2018-09-25T04:29:13.517Z,71.26
2018-09-25T04:31:47.569Z,70.94
2018-09-25T04:34:21.592Z,70.24
2018-09-25T04:36:55.516Z,69.14
2018-09-25T04:39:29.290Z,68.06
2018-09-25T04:42:03.613Z,66.99
2018-09-25T04:44:37.424Z,65.93
2018-09-25T04:47:11.577Z,65.13
2018-09-25T04:49:45.405Z,64.49
2018-09-25T04:52:19.334Z,63.73
2018-09-25T04:54:53.338Z,62.70
2018-09-25T04:57:27.157Z,62.18
2018-09-25T05:00:01.034Z,62.31
2018-09-25T05:02:34.909Z,62.97
2018-09-25T05:05:08.901Z,62.02
2018-09-25T05:07:42.876Z,61.51
2018-09-25T05:10:16.842Z,61.12
2018-09-25T05:12:50.771Z,59.31
2018-09-25T05:15:24.645Z,58.60
2018-09-25T05:17:58.677Z,58.85
2018-09-25T05:20:32.605Z,58.19
2018-09-25T05:23:06.463Z,58.40
2018-09-25T05:25:40.209Z,58.41
2018-09-25T05:28:14.138Z,57.26
2018-09-25T05:30:48.015Z,56.14
2018-09-25T05:33:21.939Z,57.15
2018-09-25T05:35:55.770Z,57.11
2018-09-25T05:38:29.690Z,57.23
2018-09-25T05:41:03.613Z,57.28
2018-09-25T05:43:37.544Z,56.17
2018-09-25T05:46:11.364Z,55.78
2018-09-25T05:48:45.389Z,55.80
2018-09-25T05:51:19.256Z,53.76
2018-09-25T05:53:53.202Z,54.99
2018-09-25T05:56:27.227Z,55.33
2018-09-25T05:59:01.036Z,54.77
2018-09-25T06:01:34.912Z,54.04
2018-09-25T06:04:08.695Z,54.93
2018-09-25T06:06:42.515Z,54.58
2018-09-25T06:09:16.479Z,55.58
2018-09-25T06:11:50.265Z,56.31
2018-09-25T06:14:24.136Z,56.63
2018-09-25T06:16:58.067Z,57.61
2018-09-25T06:19:32.080Z,56.10
2018-09-25T06:22:06.048Z,53.42
2018-09-25T06:24:39.918Z,53.49
2018-09-25T06:27:13.849Z,55.17
2018-09-25T06:29:47.689Z,54.39
2018-09-25T06:32:21.571Z,55.00
2018-09-25T06:34:55.464Z,54.00
2018-09-25T06:37:29.305Z,52.74
2018-09-25T06:40:03.224Z,50.21
2018-09-25T06:42:36.967Z,49.58
2018-09-25T06:45:10.860Z,49.05
2018-09-25T06:47:44.733Z,48.80
2018-09-25T06:50:18.645Z,48.63
2018-09-25T06:52:52.527Z,49.81
2018-09-25T06:55:26.345Z,48.93
2018-09-25T06:58:00.139Z,48.40
2018-09-25T07:00:34.000Z,48.27
2018-09-25T07:03:07.950Z,48.65
2018-09-25T07:05:41.800Z,48.86
2018-09-25T07:08:15.706Z,47.63
2018-09-25T07:10:49.596Z,46.03
2018-09-25T07:13:23.589Z,46.01
2018-09-25T07:15:57.608Z,46.02
2018-09-25T07:18:31.544Z,45.72
2018-09-25T07:21:05.483Z,46.41
2018-09-25T07:23:39.456Z,44.98
2018-09-25T07:26:13.427Z,44.37
2018-09-25T07:28:47.494Z,45.21
2018-09-25T07:31:21.349Z,46.05
2018-09-25T07:33:55.324Z,45.46
2018-09-25T07:36:29.413Z,46.62
2018-09-25T07:39:03.331Z,47.31
2018-09-25T07:41:37.228Z,47.29
2018-09-25T07:44:11.037Z,46.31
2018-09-25T07:46:45.811Z,45.57
2018-09-25T07:49:19.745Z,45.01
2018-09-25T07:51:53.591Z,43.92
2018-09-25T07:54:27.485Z,42.29
2018-09-25T07:57:01.318Z,42.93
2018-09-25T07:59:35.480Z,42.45
2018-09-25T08:02:09.303Z,42.14
2018-09-25T08:04:43.251Z,42.13
2018-09-25T08:07:17.257Z,41.21
2018-09-25T08:09:51.289Z,40.81
2018-09-25T08:12:25.128Z,40.51
2018-09-25T08:14:59.068Z,40.92
2018-09-25T08:17:32.872Z,41.29
2018-09-25T08:20:06.768Z,40.41
2018-09-25T08:22:40.707Z,40.38
2018-09-25T08:25:14.600Z,41.04
2018-09-25T08:27:48.487Z,40.92
2018-09-25T08:30:22.407Z,41.12
2018-09-25T08:32:56.257Z,40.83
2018-09-25T08:35:30.241Z,39.99
2018-09-25T08:38:04.181Z,39.39
2018-09-25T08:40:38.058Z,39.32
2018-09-25T08:43:12.022Z,37.80
2018-09-25T08:45:46.058Z,37.04
2018-09-25T08:48:19.999Z,36.35
2018-09-25T08:50:53.831Z,36.80
2018-09-25T08:53:27.860Z,35.71
2018-09-25T08:56:01.668Z,35.04
2018-09-25T08:58:35.593Z,36.14
2018-09-25T09:01:09.480Z,35.21
2018-09-25T09:03:43.304Z,33.93
2018-09-25T09:06:17.157Z,33.71
2018-09-25T09:08:51.208Z,33.50
2018-09-25T09:11:25.101Z,32.94
2018-09-25T09:13:58.923Z,33.32
2018-09-25T09:16:32.872Z,33.07
2018-09-25T09:19:06.884Z,34.16
2018-09-25T09:21:40.783Z,33.60
2018-09-25T09:24:14.723Z,34.02
2018-09-25T09:26:48.614Z,32.89
2018-09-25T09:29:22.505Z,32.57
2018-09-25T09:31:56.451Z,32.94
2018-09-25T09:34:30.364Z,34.52
2018-09-25T09:37:04.254Z,32.54
2018-09-25T09:39:38.121Z,32.18
2018-09-25T09:42:12.077Z,32.03
2018-09-25T09:44:46.137Z,31.35
2018-09-25T09:47:20.053Z,30.26
2018-09-25T09:49:54.004Z,31.38
2018-09-25T09:52:28.052Z,32.17
2018-09-25T09:55:01.872Z,34.19
2018-09-25T09:57:35.716Z,32.47
2018-09-25T10:00:11.029Z,33.88
2018-09-25T10:02:44.868Z,34.47
2018-09-25T10:05:18.743Z,34.74
2018-09-25T10:07:52.694Z,33.92
2018-09-25T10:10:26.709Z,32.59
2018-09-25T10:13:00.646Z,32.10
2018-09-25T10:15:34.630Z,31.25
2018-09-25T10:18:08.542Z,31.69
2018-09-25T10:20:42.573Z,30.99
2018-09-25T10:23:16.422Z,30.68
2018-09-25T10:25:50.352Z,30.76
2018-09-25T10:28:24.330Z,30.21
2018-09-25T10:30:58.228Z,30.69
2018-09-25T10:33:32.022Z,31.09
2018-09-25T10:36:06.068Z,30.40
2018-09-25T10:38:39.927Z,29.83
2018-09-25T10:41:13.796Z,30.56
2018-09-25T10:43:47.664Z,30.26
2018-09-25T10:46:21.531Z,29.55
2018-09-25T10:48:55.525Z,29.61
2018-09-25T10:51:29.405Z,29.53
2018-09-25T10:54:03.385Z,28.95
2018-09-25T10:59:17.362Z,28.86
2018-09-25T11:01:51.122Z,28.59
2018-09-25T11:04:24.994Z,29.76
2018-09-25T11:06:59.061Z,29.94
2018-09-25T11:09:33.048Z,29.27
2018-09-25T11:12:07.002Z,29.13
2018-09-25T11:14:40.957Z,29.00
2018-09-25T11:17:14.788Z,28.56
2018-09-25T11:19:48.703Z,29.58
2018-09-25T11:22:22.709Z,30.64
2018-09-25T11:24:56.599Z,31.09
2018-09-25T11:27:30.451Z,29.54
2018-09-25T11:30:04.476Z,28.83
2018-09-25T11:32:38.467Z,28.64
2018-09-25T11:35:12.425Z,28.85
2018-09-25T11:37:46.231Z,29.00
2018-09-25T11:40:19.960Z,28.52
2018-09-25T11:42:53.903Z,27.97
2018-09-25T11:45:27.803Z,27.73
2018-09-25T11:48:01.626Z,27.77
2018-09-25T11:50:35.577Z,26.61
2018-09-25T11:53:09.419Z,29.22
2018-09-25T11:55:43.227Z,28.15
2018-09-25T11:58:17.015Z,28.22
2018-09-25T12:00:51.109Z,27.68
2018-09-25T12:03:25.136Z,28.14
2018-09-25T12:05:58.977Z,27.94
2018-09-25T12:08:33.220Z,27.42
2018-09-25T12:11:07.041Z,27.54
2018-09-25T12:13:40.944Z,28.62
2018-09-25T12:16:14.916Z,29.93
2018-09-25T12:18:48.899Z,31.57
2018-09-25T12:21:22.966Z,31.62
2018-09-25T12:23:56.982Z,32.29
2018-09-25T12:26:30.978Z,32.90
2018-09-25T12:29:04.964Z,33.09
2018-09-25T12:31:38.829Z,31.53
2018-09-25T12:34:12.803Z,30.21
2018-09-25T12:36:46.718Z,30.90
2018-09-25T12:39:20.623Z,32.71
2018-09-25T12:41:54.425Z,32.05
2018-09-25T12:44:28.484Z,31.46
2018-09-25T12:47:02.409Z,30.11
2018-09-25T12:49:36.332Z,28.59
2018-09-25T12:52:10.187Z,28.42
2018-09-25T12:54:44.091Z,27.51
2018-09-25T12:57:17.971Z,28.36
2018-09-25T12:59:51.882Z,28.85
2018-09-25T13:02:25.896Z,29.06
2018-09-25T13:04:59.719Z,29.30
2018-09-25T13:07:33.630Z,28.30
2018-09-25T13:10:07.390Z,29.30
2018-09-25T13:12:41.325Z,29.61
2018-09-25T13:15:15.316Z,29.72
2018-09-25T13:17:49.108Z,30.06
2018-09-25T13:20:22.970Z,30.05
2018-09-25T13:22:56.879Z,30.06
2018-09-25T13:25:30.760Z,29.26
2018-09-25T13:28:04.611Z,28.35
2018-09-25T13:30:38.364Z,29.35
2018-09-25T13:33:12.340Z,29.31
2018-09-25T13:35:46.369Z,28.99
2018-09-25T13:38:20.407Z,27.93
2018-09-25T13:40:54.546Z,28.98
2018-09-25T13:43:28.468Z,29.08
2018-09-25T13:46:02.426Z,29.06
2018-09-25T13:48:36.352Z,28.87
2018-09-25T13:51:10.366Z,29.03
2018-09-25T13:53:44.342Z,30.29
2018-09-25T13:56:18.276Z,30.20
2018-09-25T13:58:52.206Z,30.49
2018-09-25T14:01:26.296Z,30.76
2018-09-25T14:04:00.296Z,30.61
2018-09-25T14:06:34.327Z,31.47
2018-09-25T14:09:08.274Z,31.35
2018-09-25T14:11:42.143Z,31.95
2018-09-25T14:14:15.889Z,31.66
2018-09-25T14:16:49.821Z,31.71
2018-09-25T14:19:23.859Z,32.09
2018-09-25T14:21:57.746Z,32.10
2018-09-25T14:24:31.604Z,32.02
2018-09-25T14:27:05.612Z,32.45
2018-09-25T14:29:39.625Z,32.71
2018-09-25T14:32:13.432Z,33.27
2018-09-25T14:34:47.235Z,33.33
2018-09-25T14:37:21.147Z,32.63
2018-09-25T14:39:55.102Z,33.11
2018-09-25T14:42:28.996Z,33.54
2018-09-25T14:45:02.844Z,33.03
2018-09-25T14:47:36.960Z,33.14
2018-09-25T14:50:10.857Z,32.74
2018-09-25T14:52:44.759Z,32.94
2018-09-25T14:55:18.741Z,33.51
2018-09-25T14:57:59.641Z,33.40
2018-09-25T15:00:33.579Z,33.60
2018-09-25T15:03:07.375Z,33.18
2018-09-25T15:05:41.358Z,33.59
2018-09-25T15:08:15.285Z,33.66
2018-09-25T15:10:49.312Z,33.57
2018-09-25T15:13:23.167Z,33.78
2018-09-25T15:15:57.112Z,34.23
2018-09-25T15:18:31.101Z,34.52
2018-09-25T15:21:05.154Z,34.66
2018-09-25T15:23:39.079Z,34.92
2018-09-25T15:26:12.944Z,35.33
2018-09-25T15:28:46.883Z,34.95
2018-09-25T15:31:20.848Z,34.79
2018-09-25T15:33:54.763Z,34.90
2018-09-25T15:36:28.671Z,35.58
2018-09-25T15:39:02.566Z,35.52
2018-09-25T15:41:36.499Z,35.59
2018-09-25T15:44:10.516Z,35.53
2018-09-25T15:46:44.452Z,36.10
2018-09-25T15:49:18.459Z,35.75
2018-09-25T15:51:52.401Z,35.96
2018-09-25T15:54:26.273Z,36.64
2018-09-25T15:57:00.169Z,36.69
2018-09-25T15:59:34.089Z,36.39
2018-09-25T16:02:07.983Z,36.51
2018-09-25T16:04:41.778Z,36.47
2018-09-25T16:07:15.728Z,36.25
2018-09-25T16:09:49.667Z,36.34
2018-09-25T16:12:23.582Z,36.30
2018-09-25T16:14:57.540Z,35.98
2018-09-25T16:17:31.443Z,36.84
2018-09-25T16:20:05.456Z,36.70
2018-09-25T16:22:39.386Z,37.44
2018-09-25T16:25:13.324Z,38.36
2018-09-25T16:27:47.239Z,37.66
2018-09-25T16:30:23.827Z,37.67
2018-09-25T16:32:57.563Z,38.22
2018-09-25T16:35:31.576Z,38.59
2018-09-25T16:38:05.624Z,39.07
2018-09-25T16:40:39.514Z,39.32
2018-09-25T16:43:13.521Z,39.46
2018-09-25T16:45:47.426Z,39.72
2018-09-25T16:48:21.256Z,39.29
2018-09-25T16:50:55.286Z,40.25
2018-09-25T16:53:29.206Z,40.49
2018-09-25T16:56:03.142Z,40.63
2018-09-25T16:58:36.947Z,40.68
2018-09-25T17:01:10.753Z,41.00
2018-09-25T17:03:44.497Z,41.06
2018-09-25T17:06:18.475Z,41.34
2018-09-25T17:08:52.284Z,41.48
2018-09-25T17:11:26.038Z,41.32
2018-09-25T17:13:59.895Z,42.58
2018-09-25T17:16:33.887Z,41.94
2018-09-25T17:19:07.834Z,42.45
2018-09-25T17:21:41.689Z,42.11
2018-09-25T17:24:15.691Z,42.05
2018-09-25T17:26:49.639Z,41.57
2018-09-25T17:29:23.545Z,41.57
2018-09-25T17:31:57.431Z,41.84
2018-09-25T17:34:31.476Z,42.10
2018-09-25T17:37:05.477Z,41.82
2018-09-25T17:39:39.850Z,41.81
2018-09-25T17:42:13.765Z,41.57
2018-09-25T17:44:47.679Z,42.21
2018-09-25T17:47:21.574Z,42.67
2018-09-25T17:49:55.456Z,43.03
2018-09-25T17:52:29.471Z,42.33
2018-09-25T17:55:03.357Z,42.63
2018-09-25T17:57:37.229Z,42.40
2018-09-25T18:00:13.387Z,42.33
2018-09-25T18:02:47.240Z,41.92
2018-09-25T18:05:21.056Z,42.02
2018-09-25T18:07:54.960Z,42.38
2018-09-25T18:10:28.806Z,43.07
2018-09-25T18:13:02.784Z,41.82
2018-09-25T18:15:36.765Z,42.03
2018-09-25T18:18:10.710Z,41.97
2018-09-25T18:20:45.040Z,41.83
2018-09-25T18:23:18.964Z,42.64
2018-09-25T18:25:52.788Z,41.90
2018-09-25T18:28:26.697Z,42.55
2018-09-25T18:31:00.552Z,41.37
2018-09-25T18:33:34.787Z,39.54
2018-09-25T18:36:08.635Z,41.01
2018-09-25T18:38:42.665Z,41.07
2018-09-25T18:41:16.574Z,40.73
2018-09-25T18:43:50.534Z,40.72
2018-09-25T18:46:24.525Z,41.07
2018-09-25T18:48:58.344Z,41.40
2018-09-25T18:51:32.184Z,41.16
2018-09-25T18:54:06.218Z,41.25
2018-09-25T18:56:39.987Z,41.57
2018-09-25T18:59:13.998Z,41.08
2018-09-25T19:01:47.926Z,41.21
2018-09-25T19:04:21.847Z,41.57
2018-09-25T19:06:55.733Z,41.34
2018-09-25T19:09:29.902Z,41.66
2018-09-25T19:12:03.832Z,41.13
2018-09-25T19:14:37.728Z,41.84
2018-09-25T19:17:11.657Z,42.15
2018-09-25T19:19:45.497Z,41.94
2018-09-25T19:22:19.296Z,42.39
2018-09-25T19:24:53.332Z,42.88
2018-09-25T19:27:28.260Z,42.84
2018-09-25T19:30:02.101Z,42.78
2018-09-25T19:32:36.043Z,43.01
2018-09-25T19:35:09.888Z,43.24
2018-09-25T19:37:43.847Z,43.15
2018-09-25T19:40:17.781Z,43.06
2018-09-25T19:42:51.656Z,43.34
2018-09-25T19:45:25.483Z,43.25
2018-09-25T19:47:59.422Z,43.38
2018-09-25T19:50:33.356Z,43.38
2018-09-25T19:53:07.329Z,43.36
2018-09-25T19:55:41.193Z,43.36
2018-09-25T19:58:15.114Z,43.29
2018-09-25T20:00:49.080Z,43.55
2018-09-25T20:03:22.918Z,43.16
2018-09-25T20:05:56.911Z,43.52
2018-09-25T20:08:30.841Z,43.45
2018-09-25T20:11:04.803Z,43.64
2018-09-25T20:13:38.716Z,43.94
2018-09-25T20:16:12.733Z,43.91
2018-09-25T20:18:46.701Z,44.31
2018-09-25T20:21:20.517Z,43.76
2018-09-25T20:23:54.526Z,44.44
2018-09-25T20:26:28.522Z,44.39
2018-09-25T20:29:02.293Z,44.78
2018-09-25T20:31:36.150Z,45.06
2018-09-25T20:34:09.964Z,45.42
2018-09-25T20:36:43.804Z,45.20
2018-09-25T20:39:17.568Z,45.77
2018-09-25T20:41:51.316Z,45.99
2018-09-25T20:44:25.240Z,45.70
2018-09-25T20:46:59.143Z,46.24
2018-09-25T20:49:32.888Z,46.17
2018-09-25T20:52:07.459Z,47.27
2018-09-25T20:54:41.220Z,46.77
2018-09-25T20:57:15.117Z,46.03
2018-09-25T20:59:49.012Z,47.36
2018-09-25T21:02:22.968Z,45.85
2018-09-25T21:04:56.758Z,45.72
2018-09-25T21:07:30.613Z,46.78
2018-09-25T21:10:04.454Z,46.64
2018-09-25T21:12:38.403Z,46.17
2018-09-25T21:15:12.521Z,46.56
2018-09-25T21:17:46.308Z,46.91
2018-09-25T21:20:20.127Z,47.56
2018-09-25T21:22:54.171Z,46.83
2018-09-25T21:25:28.017Z,47.67
2018-09-25T21:28:01.799Z,48.00
2018-09-25T21:30:35.734Z,47.29
2018-09-25T21:33:09.675Z,47.93
2018-09-25T21:35:43.600Z,48.05
2018-09-25T21:38:17.516Z,49.62
2018-09-25T21:40:51.465Z,48.62
2018-09-25T21:43:25.368Z,48.94
2018-09-25T21:45:59.239Z,49.63
2018-09-25T21:48:33.116Z,49.36
2018-09-25T21:51:07.205Z,48.45
2018-09-25T21:53:41.016Z,49.21
2018-09-25T21:56:14.968Z,48.62
2018-09-25T21:58:48.856Z,48.77
2018-09-25T22:01:22.844Z,49.21
2018-09-25T22:03:56.601Z,49.08
2018-09-25T22:06:30.448Z,49.77
2018-09-25T22:09:07.378Z,50.36
2018-09-25T22:11:41.405Z,49.35
2018-09-25T22:14:15.532Z,51.04
2018-09-25T22:16:49.396Z,51.56
2018-09-25T22:19:23.355Z,50.81
2018-09-25T22:21:57.371Z,51.24
2018-09-25T22:24:31.422Z,50.93
2018-09-25T22:27:05.405Z,51.64
2018-09-25T22:29:39.240Z,50.46
2018-09-25T22:32:13.108Z,50.45
2018-09-25T22:34:46.919Z,50.89
2018-09-25T22:37:20.840Z,49.54
2018-09-25T22:39:54.718Z,51.20
2018-09-25T22:42:28.675Z,50.12
2018-09-25T22:45:02.664Z,50.27
2018-09-25T22:47:36.550Z,50.25
2018-09-25T22:50:10.501Z,51.32
2018-09-25T22:52:44.513Z,50.82
2018-09-25T22:55:18.373Z,50.46
2018-09-25T22:57:52.181Z,51.48
2018-09-25T23:00:26.028Z,52.31
2018-09-25T23:02:59.726Z,52.18
2018-09-25T23:05:33.704Z,51.31
2018-09-25T23:08:07.529Z,51.92
2018-09-25T23:10:41.427Z,52.27
2018-09-25T23:13:15.247Z,52.48
2018-09-25T23:15:49.024Z,52.42
2018-09-25T23:18:22.903Z,53.27
2018-09-25T23:20:56.784Z,52.87
2018-09-25T23:23:30.731Z,52.82
2018-09-25T23:26:04.593Z,54.54
2018-09-25T23:28:38.565Z,52.15
2018-09-25T23:31:13.275Z,52.19
2018-09-25T23:33:47.131Z,52.11
2018-09-25T23:36:21.051Z,54.31
2018-09-25T23:38:54.904Z,52.79
2018-09-25T23:41:27.662Z,54.01
2018-09-25T23:44:01.369Z,54.28
2018-09-25T23:46:34.157Z,53.59
2018-09-25T23:49:20.546Z,52.81
2018-09-25T23:52:12.373Z,53.11
2018-09-25T23:54:47.233Z,52.62
2018-09-25T23:57:19.844Z,52.32
2018-09-25T23:59:52.462Z,53.25
